createdAt,value
2022-12-25T00:00:43.921Z,49.0
2022-12-25T00:03:14.925Z,49.0
2022-12-25T00:05:55.818Z,49.0
2022-12-25T00:08:26.484Z,49.0
2022-12-25T00:10:57.135Z,49.0
2022-12-25T00:13:27.742Z,49.0
2022-12-25T00:15:59.669Z,49.0
2022-12-25T00:18:30.446Z,49.0
2022-12-25T00:21:11.114Z,49.0
2022-12-25T00:23:41.794Z,49.0
2022-12-25T00:28:42.633Z,49.0
2022-12-25T00:31:13.389Z,49.0
2022-12-25T00:33:44.161Z,49.0
2022-12-25T00:36:24.851Z,49.0
2022-12-25T00:39:02.092Z,49.0
2022-12-25T00:41:32.725Z,49.0
2022-12-25T00:44:03.573Z,49.0
2022-12-25T00:46:34.686Z,50.0
2022-12-25T00:49:05.439Z,50.0
2022-12-25T00:51:46.108Z,49.0
2022-12-25T00:54:16.914Z,50.0
2022-12-25T00:56:47.637Z,50.0
2022-12-25T00:59:18.301Z,50.0
2022-12-25T01:01:49.269Z,50.0
2022-12-25T01:04:30.102Z,50.0
2022-12-25T01:09:30.898Z,50.0
2022-12-25T01:12:01.565Z,50.0
2022-12-25T01:14:32.219Z,50.0
2022-12-25T01:17:02.917Z,50.0
2022-12-25T01:19:43.611Z,50.0
2022-12-25T01:22:14.292Z,50.0
2022-12-25T01:24:44.914Z,50.0
2022-12-25T01:27:15.600Z,50.0
2022-12-25T01:29:46.266Z,50.0
2022-12-25T01:32:16.968Z,50.0
2022-12-25T01:35:05.660Z,50.0
2022-12-25T01:37:26.281Z,50.0
2022-12-25T01:39:56.888Z,50.0
2022-12-25T01:42:27.578Z,50.0
2022-12-25T01:44:58.213Z,50.0
2022-12-25T01:50:09.032Z,50.0
2022-12-25T01:52:39.687Z,50.0
2022-12-25T01:55:10.357Z,50.0
2022-12-25T01:57:41.008Z,50.0
2022-12-25T02:00:11.628Z,50.0
2022-12-25T02:02:52.679Z,50.0
2022-12-25T02:05:23.495Z,50.0
2022-12-25T02:07:54.189Z,50.0
2022-12-25T02:10:24.842Z,50.0
2022-12-25T02:12:55.562Z,50.0
2022-12-25T02:15:26.223Z,50.0
2022-12-25T02:18:06.883Z,50.0
2022-12-25T02:20:37.559Z,50.0
2022-12-25T02:23:08.226Z,50.0
2022-12-25T02:25:38.900Z,50.0
2022-12-25T02:30:39.689Z,50.0
2022-12-25T02:33:20.452Z,50.0
2022-12-25T02:35:51.115Z,50.0
2022-12-25T02:38:21.749Z,51.0
2022-12-25T02:40:52.389Z,50.0
2022-12-25T02:43:23.097Z,50.0
2022-12-25T02:45:53.799Z,51.0
2022-12-25T02:48:34.643Z,51.0
2022-12-25T02:51:05.328Z,51.0
2022-12-25T02:53:35.968Z,51.0
2022-12-25T02:56:06.615Z,51.0
2022-12-25T02:58:37.275Z,51.0
2022-12-25T03:01:08.065Z,51.0
2022-12-25T03:03:49.059Z,51.0
2022-12-25T03:06:19.840Z,51.0
2022-12-25T03:11:20.636Z,51.0
2022-12-25T03:13:51.269Z,51.0
2022-12-25T03:16:21.993Z,51.0
2022-12-25T03:19:02.750Z,51.0
2022-12-25T03:21:33.419Z,51.0
2022-12-25T03:24:04.099Z,51.0
2022-12-25T03:26:34.735Z,51.0
2022-12-25T03:29:05.455Z,51.0
2022-12-25T03:31:46.123Z,51.0
2022-12-25T03:34:16.777Z,51.0
2022-12-25T03:36:57.442Z,51.0
2022-12-25T03:39:28.071Z,51.0
2022-12-25T03:41:58.729Z,51.0
2022-12-25T03:44:29.438Z,51.0
2022-12-25T03:47:10.141Z,51.0
2022-12-25T03:52:10.958Z,51.0
2022-12-25T03:54:41.615Z,51.0
2022-12-25T03:57:12.308Z,51.0
2022-12-25T03:59:42.967Z,51.0
2022-12-25T04:02:23.945Z,51.0
2022-12-25T04:04:54.938Z,51.0
2022-12-25T04:07:25.808Z,51.0
2022-12-25T04:09:56.515Z,51.0
2022-12-25T04:12:27.148Z,51.0
2022-12-25T04:14:57.805Z,51.0
2022-12-25T04:17:38.523Z,51.0
2022-12-25T04:20:09.169Z,51.0
2022-12-25T04:22:40.090Z,51.0
2022-12-25T04:25:10.730Z,51.0
2022-12-25T04:27:41.412Z,51.0
2022-12-25T04:32:52.234Z,51.0
2022-12-25T04:35:22.915Z,51.0
2022-12-25T04:37:53.586Z,51.0
2022-12-25T04:40:24.236Z,51.0
2022-12-25T04:42:54.856Z,51.0
2022-12-25T04:45:35.574Z,51.0
2022-12-25T04:48:06.210Z,51.0
2022-12-25T04:50:36.864Z,51.0
2022-12-25T04:53:07.458Z,51.0
2022-12-25T04:55:38.085Z,51.0
2022-12-25T04:58:08.731Z,51.0
2022-12-25T05:00:49.434Z,51.0
2022-12-25T05:03:20.314Z,51.0
2022-12-25T05:05:51.110Z,51.0
2022-12-25T05:08:21.761Z,51.0
2022-12-25T05:13:22.578Z,51.0
2022-12-25T05:16:03.309Z,51.0
2022-12-25T05:18:34.137Z,51.0
2022-12-25T05:21:04.860Z,51.0
2022-12-25T05:23:35.572Z,51.0
2022-12-25T05:26:06.245Z,51.0
2022-12-25T05:28:46.926Z,51.0
2022-12-25T05:31:17.721Z,51.0
2022-12-25T05:33:48.594Z,51.0
2022-12-25T05:36:19.259Z,51.0
2022-12-25T05:38:49.941Z,52.0
2022-12-25T05:41:20.613Z,52.0
2022-12-25T05:44:04.882Z,52.0
2022-12-25T05:46:35.757Z,52.0
2022-12-25T05:49:06.683Z,52.0
2022-12-25T05:54:07.535Z,52.0
2022-12-25T05:56:38.447Z,52.0
2022-12-25T05:59:19.128Z,52.0
2022-12-25T06:01:50.012Z,52.0
2022-12-25T06:04:23.299Z,52.0
2022-12-25T06:06:43.933Z,52.0
2022-12-25T06:09:14.577Z,52.0
2022-12-25T06:11:45.220Z,52.0
2022-12-25T06:14:25.880Z,52.0
2022-12-25T06:17:06.622Z,52.0
2022-12-25T06:19:37.292Z,52.0
2022-12-25T06:22:08.073Z,52.0
2022-12-25T06:24:38.881Z,52.0
2022-12-25T06:27:09.522Z,52.0
2022-12-25T06:29:50.199Z,52.0
2022-12-25T06:34:51.022Z,52.0
2022-12-25T06:37:21.682Z,52.0
2022-12-25T06:39:52.298Z,53.0
2022-12-25T06:42:22.915Z,52.0
2022-12-25T06:45:03.630Z,52.0
2022-12-25T06:47:34.279Z,52.0
2022-12-25T06:50:04.895Z,52.0
2022-12-25T06:52:35.621Z,52.0
2022-12-25T06:55:06.315Z,53.0
2022-12-25T06:57:36.990Z,52.0
2022-12-25T07:00:17.633Z,52.0
2022-12-25T07:02:48.399Z,53.0
2022-12-25T07:05:19.339Z,53.0
2022-12-25T07:07:49.991Z,53.0
2022-12-25T07:10:20.664Z,52.0
2022-12-25T07:15:31.462Z,53.0
2022-12-25T07:18:02.123Z,52.0
2022-12-25T07:20:32.771Z,53.0
2022-12-25T07:23:03.402Z,53.0
2022-12-25T07:25:37.327Z,53.0
2022-12-25T07:28:18.189Z,53.0
2022-12-25T07:30:48.830Z,53.0
2022-12-25T07:33:19.489Z,53.0
2022-12-25T07:35:50.135Z,52.0
2022-12-25T07:38:20.743Z,52.0
2022-12-25T07:40:51.496Z,53.0
2022-12-25T07:43:32.195Z,53.0
2022-12-25T07:46:02.947Z,53.0
2022-12-25T07:48:33.708Z,53.0
2022-12-25T07:51:04.350Z,53.0
2022-12-25T07:56:05.159Z,53.0
2022-12-25T07:58:45.801Z,53.0
2022-12-25T08:01:16.716Z,53.0
2022-12-25T08:03:48.494Z,53.0
2022-12-25T08:06:19.400Z,53.0
2022-12-25T08:08:50.475Z,53.0
2022-12-25T08:11:31.121Z,53.0
2022-12-25T08:14:01.736Z,53.0
2022-12-25T08:16:32.577Z,53.0
2022-12-25T08:19:03.426Z,53.0
2022-12-25T08:21:34.110Z,53.0
2022-12-25T08:24:04.819Z,52.0
2022-12-25T08:26:45.510Z,52.0
2022-12-25T08:29:16.158Z,52.0
2022-12-25T08:31:54.272Z,52.0
2022-12-25T08:36:45.074Z,52.0
2022-12-25T08:39:15.724Z,52.0
2022-12-25T08:41:56.371Z,52.0
2022-12-25T08:44:27.000Z,52.0
2022-12-25T08:46:57.638Z,52.0
2022-12-25T08:49:28.315Z,52.0
2022-12-25T08:51:59.229Z,52.0
2022-12-25T08:54:29.839Z,52.0
2022-12-25T08:57:13.251Z,52.0
2022-12-25T08:59:44.084Z,52.0
2022-12-25T09:02:14.969Z,52.0
2022-12-25T09:04:46.142Z,52.0
2022-12-25T09:07:16.792Z,52.0
2022-12-25T09:09:47.427Z,52.0
2022-12-25T09:12:28.099Z,52.0
2022-12-25T09:17:28.900Z,52.0
2022-12-25T09:19:59.558Z,52.0
2022-12-25T09:22:30.256Z,51.0
2022-12-25T09:25:10.915Z,51.0
2022-12-25T09:27:41.567Z,51.0
2022-12-25T09:30:12.249Z,51.0
2022-12-25T09:32:42.925Z,51.0
2022-12-25T09:35:13.628Z,51.0
2022-12-25T09:37:44.265Z,52.0
2022-12-25T09:40:25.177Z,52.0
2022-12-25T09:42:55.827Z,51.0
2022-12-25T09:45:26.476Z,51.0
2022-12-25T09:47:57.156Z,51.0
2022-12-25T09:50:27.843Z,51.0
2022-12-25T09:52:58.561Z,51.0
2022-12-25T09:58:09.378Z,51.0
2022-12-25T10:00:40.009Z,51.0
2022-12-25T10:03:11.394Z,51.0
2022-12-25T10:05:42.229Z,51.0
2022-12-25T10:08:12.925Z,51.0
2022-12-25T10:10:53.612Z,51.0
2022-12-25T10:13:24.263Z,50.0
2022-12-25T10:15:56.279Z,50.0
2022-12-25T10:18:27.007Z,50.0
2022-12-25T10:20:57.703Z,50.0
2022-12-25T10:23:33.497Z,50.0
2022-12-25T10:26:04.175Z,50.0
2022-12-25T10:28:34.791Z,50.0
2022-12-25T10:31:05.626Z,50.0
2022-12-25T10:33:36.409Z,50.0
2022-12-25T10:38:47.217Z,49.0
2022-12-25T10:41:17.845Z,49.0
2022-12-25T10:43:48.498Z,49.0
2022-12-25T10:46:19.269Z,49.0
2022-12-25T10:48:50.063Z,49.0
2022-12-25T10:51:20.722Z,49.0
2022-12-25T10:54:01.387Z,49.0
2022-12-25T10:56:32.068Z,49.0
2022-12-25T10:59:02.704Z,48.0
2022-12-25T11:01:33.631Z,48.0
2022-12-25T11:04:04.581Z,48.0
2022-12-25T11:06:35.304Z,48.0
2022-12-25T11:09:15.977Z,48.0
2022-12-25T11:11:46.631Z,48.0
2022-12-25T11:14:27.274Z,48.0
2022-12-25T11:19:28.148Z,47.0
2022-12-25T11:22:08.930Z,47.0
2022-12-25T11:24:30.775Z,47.0
2022-12-25T11:27:01.493Z,46.0
2022-12-25T11:29:32.241Z,46.0
2022-12-25T11:32:03.193Z,46.0
2022-12-25T11:34:33.858Z,46.0
2022-12-25T11:37:14.542Z,46.0
2022-12-25T11:39:45.181Z,46.0
2022-12-25T11:42:25.883Z,46.0
2022-12-25T11:44:56.529Z,46.0
2022-12-25T11:47:27.214Z,46.0
2022-12-25T11:50:01.209Z,46.0
2022-12-25T11:52:31.907Z,45.0
2022-12-25T11:55:02.550Z,45.0
2022-12-25T12:00:03.293Z,45.0
2022-12-25T12:02:34.484Z,45.0
2022-12-25T12:05:05.510Z,45.0
2022-12-25T12:07:46.174Z,45.0
2022-12-25T12:10:16.834Z,45.0
2022-12-25T12:12:49.890Z,45.0
2022-12-25T12:15:20.538Z,45.0
2022-12-25T12:17:51.193Z,45.0
2022-12-25T12:20:21.899Z,45.0
2022-12-25T12:23:02.578Z,46.0
2022-12-25T12:25:33.210Z,45.0
2022-12-25T12:28:05.748Z,45.0
2022-12-25T12:30:36.641Z,45.0
2022-12-25T12:33:07.292Z,45.0
2022-12-25T12:35:38.025Z,45.0
2022-12-25T12:40:48.867Z,45.0
2022-12-25T12:43:19.476Z,46.0
2022-12-25T12:45:50.257Z,46.0
2022-12-25T12:48:21.003Z,46.0
2022-12-25T12:51:01.659Z,45.0
2022-12-25T12:53:32.316Z,45.0
2022-12-25T12:56:02.941Z,45.0
2022-12-25T12:58:33.839Z,45.0
2022-12-25T13:01:04.774Z,45.0
2022-12-25T13:03:35.609Z,45.0
2022-12-25T13:06:16.324Z,45.0
2022-12-25T13:08:46.995Z,45.0
2022-12-25T13:11:17.638Z,45.0
2022-12-25T13:13:48.533Z,45.0
2022-12-25T13:16:19.244Z,45.0
2022-12-25T13:21:30.174Z,45.0
2022-12-25T13:24:00.829Z,45.0
2022-12-25T13:26:31.473Z,45.0
2022-12-25T13:29:05.031Z,45.0
2022-12-25T13:31:38.596Z,45.0
2022-12-25T13:34:09.311Z,45.0
2022-12-25T13:36:50.577Z,45.0
2022-12-25T13:39:21.225Z,45.0
2022-12-25T13:41:52.108Z,45.0
2022-12-25T13:44:22.776Z,45.0
2022-12-25T13:46:53.434Z,45.0
2022-12-25T13:49:24.115Z,45.0
2022-12-25T13:52:04.725Z,45.0
2022-12-25T13:54:35.344Z,45.0
2022-12-25T13:57:05.990Z,45.0
2022-12-25T14:02:07.131Z,45.0
2022-12-25T14:04:48.142Z,45.0
2022-12-25T14:07:18.818Z,45.0
2022-12-25T14:09:50.023Z,45.0
2022-12-25T14:12:27.472Z,45.0
2022-12-25T14:14:48.114Z,45.0
2022-12-25T14:17:18.835Z,45.0
2022-12-25T14:20:03.979Z,45.0
2022-12-25T14:22:26.418Z,45.0
2022-12-25T14:24:57.081Z,45.0
2022-12-25T14:27:27.755Z,45.0
2022-12-25T14:29:58.386Z,45.0
2022-12-25T14:32:29.038Z,46.0
2022-12-25T14:35:09.738Z,46.0
2022-12-25T14:37:44.031Z,46.0
2022-12-25T14:42:44.800Z,46.0
2022-12-25T14:45:15.460Z,46.0
2022-12-25T14:47:46.125Z,46.0
2022-12-25T14:50:26.841Z,45.0
2022-12-25T14:52:57.479Z,45.0
2022-12-25T14:55:28.213Z,45.0
2022-12-25T14:57:58.844Z,45.0
2022-12-25T15:00:29.510Z,45.0
2022-12-25T15:03:00.745Z,45.0
2022-12-25T15:05:41.661Z,45.0
2022-12-25T15:08:12.358Z,45.0
2022-12-25T15:11:09.630Z,45.0
2022-12-25T15:13:20.238Z,45.0
2022-12-25T15:15:50.963Z,45.0
2022-12-25T15:18:31.713Z,46.0
2022-12-25T15:23:32.653Z,46.0
2022-12-25T15:26:03.313Z,46.0
2022-12-25T15:28:34.005Z,46.0
2022-12-25T15:31:04.759Z,46.0
2022-12-25T15:33:50.846Z,46.0
2022-12-25T15:36:11.490Z,46.0
2022-12-25T15:38:42.158Z,46.0
2022-12-25T15:41:12.778Z,46.0
2022-12-25T15:43:51.653Z,46.0
2022-12-25T15:46:12.385Z,46.0
2022-12-25T15:48:53.122Z,46.0
2022-12-25T15:51:23.764Z,46.0
2022-12-25T15:53:54.415Z,46.0
2022-12-25T15:56:25.131Z,46.0
2022-12-25T15:58:55.773Z,46.0
2022-12-25T16:04:06.679Z,46.0
2022-12-25T16:06:37.312Z,46.0
2022-12-25T16:09:17.987Z,46.0
2022-12-25T16:11:48.667Z,46.0
2022-12-25T16:14:19.289Z,46.0
2022-12-25T16:16:50.044Z,46.0
2022-12-25T16:19:30.701Z,46.0
2022-12-25T16:22:01.351Z,46.0
2022-12-25T16:24:32.005Z,46.0
2022-12-25T16:27:02.628Z,46.0
2022-12-25T16:29:33.248Z,46.0
2022-12-25T16:32:03.902Z,46.0
2022-12-25T16:34:44.564Z,46.0
2022-12-25T16:37:15.656Z,46.0
2022-12-25T16:39:46.288Z,46.0
2022-12-25T16:44:47.084Z,46.0
2022-12-25T16:47:27.741Z,46.0
2022-12-25T16:49:58.360Z,46.0
2022-12-25T16:52:29.019Z,46.0
2022-12-25T16:54:59.682Z,46.0
2022-12-25T16:57:31.669Z,46.0
2022-12-25T17:00:02.324Z,46.0
2022-12-25T17:02:43.497Z,46.0
2022-12-25T17:05:14.638Z,46.0
2022-12-25T17:07:45.271Z,46.0
2022-12-25T17:10:15.996Z,46.0
2022-12-25T17:12:46.643Z,46.0
2022-12-25T17:15:17.404Z,46.0
2022-12-25T17:17:58.112Z,46.0
2022-12-25T17:20:28.746Z,46.0
2022-12-25T17:25:29.524Z,46.0
2022-12-25T17:28:00.189Z,46.0
2022-12-25T17:30:30.831Z,46.0
2022-12-25T17:33:11.509Z,46.0
2022-12-25T17:35:42.214Z,46.0
2022-12-25T17:38:12.821Z,46.0
2022-12-25T17:40:43.459Z,46.0
2022-12-25T17:43:18.912Z,47.0
2022-12-25T17:45:41.194Z,46.0
2022-12-25T17:48:21.860Z,47.0
2022-12-25T17:50:52.523Z,46.0
2022-12-25T17:53:23.143Z,46.0
2022-12-25T17:55:53.831Z,47.0
2022-12-25T17:58:24.850Z,47.0
2022-12-25T18:01:05.529Z,47.0
2022-12-25T18:06:06.590Z,47.0
2022-12-25T18:08:39.435Z,47.0
2022-12-25T18:11:10.501Z,47.0
2022-12-25T18:13:41.122Z,47.0
2022-12-25T18:16:21.923Z,47.0
2022-12-25T18:19:01.316Z,47.0
2022-12-25T18:21:22.009Z,47.0
2022-12-25T18:23:52.694Z,47.0
2022-12-25T18:26:23.399Z,48.0
2022-12-25T18:28:54.307Z,48.0
2022-12-25T18:31:35.075Z,48.0
2022-12-25T18:34:05.841Z,48.0
2022-12-25T18:36:36.506Z,48.0
2022-12-25T18:39:07.123Z,48.0
2022-12-25T18:41:37.762Z,48.0
2022-12-25T18:46:48.562Z,48.0
2022-12-25T18:49:19.205Z,48.0
2022-12-25T18:51:49.884Z,48.0
2022-12-25T18:54:19.236Z,48.0
2022-12-25T18:56:53.215Z,48.0
2022-12-25T18:59:37.832Z,48.0
2022-12-25T19:02:08.685Z,48.0
2022-12-25T19:04:39.459Z,48.0
2022-12-25T19:07:10.102Z,48.0
2022-12-25T19:09:40.785Z,48.0
2022-12-25T19:12:11.727Z,48.0
2022-12-25T19:14:58.265Z,48.0
2022-12-25T19:17:19.094Z,48.0
2022-12-25T19:19:52.517Z,48.0
2022-12-25T19:22:23.162Z,48.0
2022-12-25T19:27:23.942Z,48.0
2022-12-25T19:30:04.572Z,48.0
2022-12-25T19:32:35.192Z,48.0
2022-12-25T19:35:05.881Z,48.0
2022-12-25T19:37:36.556Z,48.0
2022-12-25T19:40:07.199Z,48.0
2022-12-25T19:42:37.862Z,48.0
2022-12-25T19:47:48.669Z,48.0
2022-12-25T19:50:19.331Z,48.0
2022-12-25T19:52:49.946Z,48.0
2022-12-25T19:55:20.612Z,48.0
2022-12-25T19:57:51.272Z,48.0
2022-12-25T20:00:31.985Z,48.0
2022-12-25T20:03:03.139Z,48.0
2022-12-25T20:08:04.057Z,48.0
2022-12-25T20:10:34.750Z,48.0
2022-12-25T20:13:15.438Z,48.0
2022-12-25T20:15:46.076Z,48.0
2022-12-25T20:18:16.744Z,48.0
2022-12-25T20:20:47.417Z,48.0
2022-12-25T20:23:18.118Z,48.0
2022-12-25T20:25:48.765Z,48.0
2022-12-25T20:28:29.455Z,48.0
2022-12-25T20:31:00.122Z,48.0
2022-12-25T20:33:30.785Z,48.0
2022-12-25T20:36:01.462Z,48.0
2022-12-25T20:38:32.113Z,48.0
2022-12-25T20:41:35.475Z,48.0
2022-12-25T20:43:49.053Z,49.0
2022-12-25T20:48:50.656Z,49.0
2022-12-25T20:51:21.314Z,49.0
2022-12-25T20:53:51.975Z,49.0
2022-12-25T20:56:22.674Z,49.0
2022-12-25T20:59:03.301Z,48.0
2022-12-25T21:01:34.181Z,48.0
2022-12-25T21:04:05.253Z,48.0
2022-12-25T21:06:37.260Z,48.0
2022-12-25T21:09:07.929Z,48.0
2022-12-25T21:11:48.597Z,48.0
2022-12-25T21:14:19.237Z,48.0
2022-12-25T21:16:49.953Z,48.0
2022-12-25T21:19:20.814Z,48.0
2022-12-25T21:21:51.497Z,48.0
2022-12-25T21:24:22.190Z,48.0
2022-12-25T21:29:33.005Z,48.0
2022-12-25T21:32:03.679Z,48.0
2022-12-25T21:34:34.318Z,48.0
2022-12-25T21:37:04.991Z,48.0
2022-12-25T21:39:36.003Z,48.0
2022-12-25T21:42:16.644Z,48.0
2022-12-25T21:44:47.255Z,48.0
2022-12-25T21:47:17.895Z,48.0
2022-12-25T21:49:51.952Z,48.0
2022-12-25T21:52:22.565Z,48.0
2022-12-25T21:54:53.209Z,48.0
2022-12-25T21:57:33.883Z,48.0
2022-12-25T22:00:04.530Z,47.0
2022-12-25T22:02:35.450Z,48.0
2022-12-25T22:05:06.272Z,48.0
2022-12-25T22:10:07.094Z,48.0
2022-12-25T22:12:47.783Z,48.0
2022-12-25T22:15:18.538Z,47.0
2022-12-25T22:17:49.229Z,48.0
2022-12-25T22:20:19.939Z,47.0
2022-12-25T22:22:50.686Z,48.0
2022-12-25T22:25:31.360Z,47.0
2022-12-25T22:28:02.026Z,47.0
2022-12-25T22:30:32.669Z,47.0
2022-12-25T22:33:03.376Z,47.0
2022-12-25T22:35:34.063Z,47.0
2022-12-25T22:38:04.699Z,47.0
2022-12-25T22:40:45.339Z,47.0
2022-12-25T22:43:15.986Z,47.0
2022-12-25T22:45:41.107Z,47.0
2022-12-25T22:50:41.988Z,47.0
2022-12-25T22:53:12.639Z,47.0
2022-12-25T22:58:23.404Z,47.0
2022-12-25T23:00:56.730Z,47.0
2022-12-25T23:03:27.812Z,47.0
2022-12-25T23:05:58.772Z,47.0
2022-12-25T23:08:29.409Z,47.0
2022-12-25T23:11:10.492Z,47.0
2022-12-25T23:13:41.141Z,47.0
2022-12-25T23:16:11.864Z,47.0
2022-12-25T23:18:42.555Z,47.0
2022-12-25T23:21:13.205Z,47.0
2022-12-25T23:23:43.853Z,47.0
2022-12-25T23:26:24.483Z,47.0
2022-12-25T23:31:25.504Z,47.0
2022-12-25T23:33:56.341Z,47.0
2022-12-25T23:36:27.267Z,47.0
2022-12-25T23:39:01.716Z,47.0
2022-12-25T23:41:45.414Z,47.0
2022-12-25T23:44:16.061Z,47.0
2022-12-25T23:46:52.137Z,46.0
2022-12-25T23:49:13.864Z,47.0
2022-12-25T23:51:44.484Z,46.0
2022-12-25T23:54:25.121Z,46.0
2022-12-25T23:56:55.776Z,46.0
2022-12-25T23:59:26.439Z,46.0
